Eastsound, Washington
Current Conditions -  °F | °C
As of 2:35 PM on Wednesday 22 Oct 2014 (Local Time) from KORS Reporting Station
Scattered Clouds Scattered Clouds  
Wind Chill: 57°   Ceiling: Unl
Heat Index: 57°   Visibility: 10mi
Dew Point: 54°   Wind: 10mph
Humidity: 88%   Direction: 190°S
Pressure: 29.61"   Gusts: NA
Location:  48.7°N, 122.91°W
Report Text: KORS 222135Z AUTO 19009KT 10SM SCT024 14/12 A2961 RMK AO2
Loading
Personal Weather Stations






























Interactive Weather Map
Tropical Storm Tracking
New forecast layout! Learn more

10-Day Weather Forecast

Advertisements
Track Severe Weather on mobile